Ship Status Report: callsign FICK

sailwx.info

Track history (hours):
 
Tides and Currents Weather Stations Pressure Air Temp Water Temp Dewpoint Dewpoint Depression Visibility Wind Speed Wind Dir Waves Ship Positions

Callsign FICK (name unknown)

Last reported at 2017-May-25 20:00 UTC. Time now 2017-May-25 20:07 UTC.
Position N 51°54' E 004°22'.

Length 184 m; draft 7.2 m.

Type: Ship. MMSI: 226000000.

Date/timePositionNaut miles runAvg speedWind from/ knotsBaromVisibWave heightAir tempDewpointWater temp
2017-May-25 20:00N 51°54' E 004°22'0 0.0
2017-May-25 19:00N 51°54' E 004°22'0 0.0
2017-May-25 18:30N 51°54' E 004°22'0 0.0
2017-May-25 18:00N 51°54' E 004°22'0 0.0
2017-May-25 17:30N 51°54' E 004°22'0 0.0
2017-May-25 17:00N 51°54' E 004°22'0 0.0
2017-May-25 16:30N 51°54' E 004°22'0 0.0
2017-May-25 16:00N 51°54' E 004°22'0 0.0
2017-May-25 15:30N 51°54' E 004°22'0 0.0
2017-May-25 15:00N 51°54' E 004°22'0 0.0
2017-May-25 13:56N 51°54' E 004°22'0 0.0
2017-May-25 13:29N 51°54' E 004°22'0 0.0
2017-May-25 12:50N 51°54' E 004°22'0 0.0
2017-May-25 12:26N 51°54' E 004°22'0 0.0
2017-May-25 11:59N 51°54' E 004°22'0 0.0
2017-May-25 10:59N 51°54' E 004°22'0 0.0
2017-May-25 08:59N 51°54' E 004°22'0 0.0
2017-May-25 08:29N 51°54' E 004°22'0 0.0
2017-May-25 07:59N 51°54' E 004°22'0 0.0
2017-May-25 07:29N 51°54' E 004°22'0 0.0
2017-May-25 06:55N 51°54' E 004°22'0 0.0
2017-May-25 06:31N 51°54' E 004°22'1 1.1
2017-May-25 06:01N 51°54' E 004°21'3 6.7
2017-May-25 05:31N 51°54' E 004°16'4 8.7
2017-May-25 05:01N 51°57' E 004°10'510.2
2017-May-25 04:31N 51°59' E 004°03'612.8
2017-May-25 04:01N 51°60' E 003°53'510.7
2017-May-25 03:30N 51°59' E 003°44'612.8
2017-May-25 03:00N 51°57' E 003°34'713.1
2017-May-25 02:30N 51°56' E 003°24'714.1
2017-May-25 02:00N 51°54' E 003°12'815.6
2017-May-25 01:27N 51°51' E 002°59'916.3
2017-May-25 00:55N 51°49' E 002°46'916.1
2017-May-25 00:21N 51°44' E 002°33'1017.0
2017-May-24 23:47N 51°36' E 002°23'517.1
2017-May-24 23:30N 51°33' E 002°18'816.4
2017-May-24 23:01N 51°26' E 002°12'816.4
2017-May-24 22:31N 51°18' E 002°08'816.6
2017-May-24 22:01N 51°12' E 001°58'816.4
2017-May-24 21:30N 51°07' E 001°47'816.2
2017-May-24 21:01N 51°01' E 001°39'815.5
2017-May-24 20:31N 50°56' E 001°30'714.6
2017-May-24 20:00N 50°49' E 001°25'1314.2
2017-May-24 19:06N 50°38' E 001°15'114.9
2017-May-24 19:00N 50°37' E 001°13'2014.7
2017-May-24 17:40N 50°28' E 000°46'614.8
2017-May-24 17:17N 50°27' E 000°37'514.6
2017-May-24 16:56N 50°25' E 000°29'614.4
2017-May-24 16:30N 50°24' E 000°19'714.1
2017-May-24 16:00N 50°22' E 000°09'713.8
2017-May-24 15:31N 50°20' W 000°01'713.6
2017-May-24 15:01N 50°19' W 000°12'1513.0
2017-May-24 13:51N 50°14' W 000°34'512.6
2017-May-24 13:29N 50°13' W 000°41'812.2
2017-May-24 12:52N 50°11' W 000°53'1411.7
2017-May-24 11:42N 50°07' W 001°13'211.2
2017-May-24 11:30N 50°07' W 001°16'611.2
2017-May-24 10:55N 50°05' W 001°26'511.8
2017-May-24 10:31N 50°04' W 001°33'612.4
2017-May-24 10:00N 50°02' W 001°43'612.6
2017-May-24 09:30N 50°00' W 001°52'812.8
2017-May-24 08:53N 49°58' W 002°04'612.9
2017-May-24 08:27N 49°57' W 002°13'1013.2
2017-May-24 07:41N 49°54' W 002°28'313.3
2017-May-24 07:29N 49°54' W 002°32'1013.6
2017-May-24 06:46N 49°51' W 002°46'313.5
2017-May-24 06:31N 49°50' W 002°52'713.6
2017-May-24 06:00N 49°47' W 003°01'713.5
2017-May-24 05:30N 49°44' W 003°10'713.6
2017-May-24 05:00N 49°40' W 003°19'713.5
2017-May-24 04:30N 49°37' W 003°28'713.4
2017-May-24 04:01N 49°33' W 003°37'913.6
2017-May-24 03:22N 49°29' W 003°49'713.7
2017-May-24 02:51N 49°25' W 003°58'613.5
2017-May-24 02:23N 49°22' W 004°07'513.5
2017-May-24 02:01N 49°20' W 004°13'1013.3
2017-May-24 01:15N 49°15' W 004°27'413.2
2017-May-24 00:56N 49°13' W 004°32'1313.2
2017-May-23 23:55N 49°06' W 004°50'2113.2
2017-May-23 22:19N 48°56' W 005°18'412.8
2017-May-23 21:59N 48°53' W 005°24'912.5
2017-May-23 21:17N 48°49' W 005°35'312.1
2017-May-23 21:01N 48°47' W 005°39'312 8.1
2017-May-22 06:41N 48°53' E 002°15'725193.1
2017-May-22 02:56N 40°28' W 009°57'2512.9
2017-May-22 00:58N 40°03' W 009°57'3312.9
2017-May-21 22:27N 39°31' W 009°57'612.7
2017-May-21 22:00N 39°25' W 009°57'612.9
2017-May-21 21:30N 39°19' W 009°57'613.0
2017-May-21 21:01N 39°12' W 009°57'713.2
2017-May-21 20:31N 39°05' W 009°57'612.9
2017-May-21 20:00N 38°59' W 009°57'713.1
2017-May-21 19:30N 38°52' W 009°57'612.6
2017-May-21 19:00N 38°46' W 009°57'612.5
2017-May-21 18:31N 38°40' W 009°56'612.7
2017-May-21 18:00N 38°34' W 009°54'612.9
2017-May-21 17:31N 38°27' W 009°52'713.1
2017-May-21 17:01N 38°21' W 009°51'713.1
2017-May-21 16:30N 38°15' W 009°49'612.8
2017-May-21 16:00N 38°08' W 009°47'1013.2
2017-May-21 15:16N 37°59' W 009°44'813.1
2017-May-21 14:41N 37°51' W 009°42'913.0
2017-May-21 13:59N 37°43' W 009°39'613.0
2017-May-21 13:30N 37°36' W 009°38'3013.1
2017-May-21 11:12N 37°07' W 009°29'512.9
2017-May-21 10:51N 37°03' W 009°28'513.2
2017-May-21 10:28N 36°58' W 009°26'2512.8
2017-May-21 08:33N 36°39' W 009°07'213.3
2017-May-21 08:24N 36°38' W 009°05'2913.1
2017-May-21 06:10N 36°29' W 008°30'3412.9
2017-May-21 03:33N 36°20' W 007°50'113.0
2017-May-21 03:26N 36°19' W 007°48'613.0
2017-May-21 03:00N 36°17' W 007°41'4413.0
2017-May-20 23:39N 36°04' W 006°50'913.3
2017-May-20 23:00N 36°02' W 006°40'713.2
2017-May-20 22:30N 35°60' W 006°32'712.9
2017-May-20 21:56N 35°58' W 006°23'612.5
2017-May-20 21:27N 35°58' W 006°16'612.7
2017-May-20 21:00N 35°58' W 006°09'912.8
2017-May-20 20:19N 35°58' W 005°58'1713.8
2017-May-20 19:05N 35°57' W 005°37'114.5
2017-May-20 19:00N 35°58' W 005°35'713.8
2017-May-20 18:30N 35°59' W 005°27'713.1
2017-May-20 18:00N 36°01' W 005°19'713.4
2017-May-20 17:30N 36°02' W 005°11'713.2
2017-May-20 16:59N 36°03' W 005°03'21012.5
2017-May-20 00:13N 37°17' W 000°58'313.2
2017-May-20 00:00N 37°19' W 000°55'613.2
2017-May-19 23:30N 37°23' W 000°49'713.1
2017-May-19 23:00N 37°28' W 000°42'713.0
2017-May-19 22:30N 37°32' W 000°36'613.0
2017-May-19 22:00N 37°37' W 000°31'813.1
2017-May-19 21:24N 37°44' W 000°26'15113.1
2017-May-19 09:50N 40°01' E 000°56'413.5
2017-May-19 09:30N 40°05' E 000°57'1113.3
2017-May-19 08:42N 40°15' E 001°03'313.8
2017-May-19 08:29N 40°18' E 001°04'713.4
2017-May-19 08:00N 40°24' E 001°04'713.9
2017-May-19 07:28N 40°32' E 001°04'35 0.8
2017-May-17 12:51N 41°06' E 001°13'0 0.0
2017-May-17 00:09N 41°06' E 001°13'0 0.0
2017-May-16 23:51N 41°06' E 001°13'0 0.0
2017-May-16 22:33N 41°06' E 001°13'0 0.1
2017-May-16 22:27N 41°06' E 001°13'0 0.0
2017-May-16 21:51N 41°06' E 001°13'0 0.0
2017-May-16 21:21N 41°06' E 001°13'0 0.0
2017-May-16 17:09N 41°06' E 001°13'0 0.0
2017-May-16 17:00N 41°06' E 001°13'2 3.4
2017-May-16 16:30N 41°04' E 001°12'1 1.7
2017-May-16 16:00N 41°03' E 001°13'1 2.0
2017-May-16 15:30N 41°04' E 001°14'2 2.7
2017-May-16 14:49N 41°05' E 001°17'0 0.0
2017-May-16 14:22N 41°05' E 001°17'0 0.0
2017-May-16 13:25N 41°05' E 001°17'0 0.0
2017-May-16 12:58N 41°05' E 001°17'0 0.0
2017-May-16 12:13N 41°05' E 001°17'0 0.0
2017-May-16 11:55N 41°05' E 001°17'0 0.0
2017-May-16 11:13N 41°05' E 001°17'0 0.0
2017-May-16 10:31N 41°05' E 001°17'0 0.0
2017-May-16 10:25N 41°05' E 001°17'0 0.0
2017-May-16 09:55N 41°05' E 001°17'0 0.0
2017-May-16 07:01N 41°05' E 001°17'0 0.0
2017-May-16 03:25N 41°05' E 001°17'0 0.0
2017-May-16 01:25N 41°05' E 001°17'0 0.0
2017-May-16 00:25N 41°05' E 001°17'0 0.0
2017-May-15 23:49N 41°05' E 001°17'0 0.0
2017-May-15 22:16N 41°05' E 001°17'0 0.0
2017-May-15 21:49N 41°05' E 001°17'0 0.0
2017-May-15 21:19N 41°05' E 001°17'0 0.0
2017-May-15 20:55N 41°05' E 001°17'0 0.0
2017-May-15 20:13N 41°05' E 001°17'  
Track history (hours):
 
Tides and Currents Weather Stations Pressure Air Temp Water Temp Dewpoint Dewpoint Depression Visibility Wind Speed Wind Dir Waves Ship Positions

Callsign FICK (name unknown)

Last reported at 2017-May-25 20:00 UTC. Time now 2017-May-25 20:07 UTC.
Position N 51°54' E 004°22'.

Length 184 m; draft 7.2 m.

Type: Ship. MMSI: 226000000.

Date/timePositionNaut miles runAvg speedWind from/ knotsBaromVisibWave heightAir tempDewpointWater temp
2017-May-25 20:00N 51°54' E 004°22'0 0.0
2017-May-25 19:00N 51°54' E 004°22'0 0.0
2017-May-25 18:30N 51°54' E 004°22'0 0.0
2017-May-25 18:00N 51°54' E 004°22'0 0.0
2017-May-25 17:30N 51°54' E 004°22'0 0.0
2017-May-25 17:00N 51°54' E 004°22'0 0.0
2017-May-25 16:30N 51°54' E 004°22'0 0.0
2017-May-25 16:00N 51°54' E 004°22'0 0.0
2017-May-25 15:30N 51°54' E 004°22'0 0.0
2017-May-25 15:00N 51°54' E 004°22'0 0.0
2017-May-25 13:56N 51°54' E 004°22'0 0.0
2017-May-25 13:29N 51°54' E 004°22'0 0.0
2017-May-25 12:50N 51°54' E 004°22'0 0.0
2017-May-25 12:26N 51°54' E 004°22'0 0.0
2017-May-25 11:59N 51°54' E 004°22'0 0.0
2017-May-25 10:59N 51°54' E 004°22'0 0.0
2017-May-25 08:59N 51°54' E 004°22'0 0.0
2017-May-25 08:29N 51°54' E 004°22'0 0.0
2017-May-25 07:59N 51°54' E 004°22'0 0.0
2017-May-25 07:29N 51°54' E 004°22'0 0.0
2017-May-25 06:55N 51°54' E 004°22'0 0.0
2017-May-25 06:31N 51°54' E 004°22'1 1.1
2017-May-25 06:01N 51°54' E 004°21'3 6.7
2017-May-25 05:31N 51°54' E 004°16'4 8.7
2017-May-25 05:01N 51°57' E 004°10'510.2
2017-May-25 04:31N 51°59' E 004°03'612.8
2017-May-25 04:01N 51°60' E 003°53'510.7
2017-May-25 03:30N 51°59' E 003°44'612.8
2017-May-25 03:00N 51°57' E 003°34'713.1
2017-May-25 02:30N 51°56' E 003°24'714.1
2017-May-25 02:00N 51°54' E 003°12'815.6
2017-May-25 01:27N 51°51' E 002°59'916.3
2017-May-25 00:55N 51°49' E 002°46'916.1
2017-May-25 00:21N 51°44' E 002°33'1017.0
2017-May-24 23:47N 51°36' E 002°23'517.1
2017-May-24 23:30N 51°33' E 002°18'816.4
2017-May-24 23:01N 51°26' E 002°12'816.4
2017-May-24 22:31N 51°18' E 002°08'816.6
2017-May-24 22:01N 51°12' E 001°58'816.4
2017-May-24 21:30N 51°07' E 001°47'816.2
2017-May-24 21:01N 51°01' E 001°39'815.5
2017-May-24 20:31N 50°56' E 001°30'714.6
2017-May-24 20:00N 50°49' E 001°25'1314.2
2017-May-24 19:06N 50°38' E 001°15'114.9
2017-May-24 19:00N 50°37' E 001°13'2014.7
2017-May-24 17:40N 50°28' E 000°46'614.8
2017-May-24 17:17N 50°27' E 000°37'514.6
2017-May-24 16:56N 50°25' E 000°29'614.4
2017-May-24 16:30N 50°24' E 000°19'714.1
2017-May-24 16:00N 50°22' E 000°09'713.8
2017-May-24 15:31N 50°20' W 000°01'713.6
2017-May-24 15:01N 50°19' W 000°12'1513.0
2017-May-24 13:51N 50°14' W 000°34'512.6
2017-May-24 13:29N 50°13' W 000°41'812.2
2017-May-24 12:52N 50°11' W 000°53'1411.7
2017-May-24 11:42N 50°07' W 001°13'211.2
2017-May-24 11:30N 50°07' W 001°16'611.2
2017-May-24 10:55N 50°05' W 001°26'511.8
2017-May-24 10:31N 50°04' W 001°33'612.4
2017-May-24 10:00N 50°02' W 001°43'612.6
2017-May-24 09:30N 50°00' W 001°52'812.8
2017-May-24 08:53N 49°58' W 002°04'612.9
2017-May-24 08:27N 49°57' W 002°13'1013.2
2017-May-24 07:41N 49°54' W 002°28'313.3
2017-May-24 07:29N 49°54' W 002°32'1013.6
2017-May-24 06:46N 49°51' W 002°46'313.5
2017-May-24 06:31N 49°50' W 002°52'713.6
2017-May-24 06:00N 49°47' W 003°01'713.5
2017-May-24 05:30N 49°44' W 003°10'713.6
2017-May-24 05:00N 49°40' W 003°19'713.5
2017-May-24 04:30N 49°37' W 003°28'713.4
2017-May-24 04:01N 49°33' W 003°37'913.6
2017-May-24 03:22N 49°29' W 003°49'713.7
2017-May-24 02:51N 49°25' W 003°58'613.5
2017-May-24 02:23N 49°22' W 004°07'513.5
2017-May-24 02:01N 49°20' W 004°13'1013.3
2017-May-24 01:15N 49°15' W 004°27'413.2
2017-May-24 00:56N 49°13' W 004°32'1313.2
2017-May-23 23:55N 49°06' W 004°50'2113.2
2017-May-23 22:19N 48°56' W 005°18'412.8
2017-May-23 21:59N 48°53' W 005°24'912.5
2017-May-23 21:17N 48°49' W 005°35'312.1
2017-May-23 21:01N 48°47' W 005°39'312 8.1
2017-May-22 06:41N 48°53' E 002°15'725193.1
2017-May-22 02:56N 40°28' W 009°57'2512.9
2017-May-22 00:58N 40°03' W 009°57'3312.9
2017-May-21 22:27N 39°31' W 009°57'612.7
2017-May-21 22:00N 39°25' W 009°57'612.9
2017-May-21 21:30N 39°19' W 009°57'613.0
2017-May-21 21:01N 39°12' W 009°57'713.2
2017-May-21 20:31N 39°05' W 009°57'612.9
2017-May-21 20:00N 38°59' W 009°57'713.1
2017-May-21 19:30N 38°52' W 009°57'612.6
2017-May-21 19:00N 38°46' W 009°57'612.5
2017-May-21 18:31N 38°40' W 009°56'612.7
2017-May-21 18:00N 38°34' W 009°54'612.9
2017-May-21 17:31N 38°27' W 009°52'713.1
2017-May-21 17:01N 38°21' W 009°51'713.1
2017-May-21 16:30N 38°15' W 009°49'612.8
2017-May-21 16:00N 38°08' W 009°47'1013.2
2017-May-21 15:16N 37°59' W 009°44'813.1
2017-May-21 14:41N 37°51' W 009°42'913.0
2017-May-21 13:59N 37°43' W 009°39'613.0
2017-May-21 13:30N 37°36' W 009°38'3013.1
2017-May-21 11:12N 37°07' W 009°29'512.9
2017-May-21 10:51N 37°03' W 009°28'513.2
2017-May-21 10:28N 36°58' W 009°26'2512.8
2017-May-21 08:33N 36°39' W 009°07'213.3
2017-May-21 08:24N 36°38' W 009°05'2913.1
2017-May-21 06:10N 36°29' W 008°30'3412.9
2017-May-21 03:33N 36°20' W 007°50'113.0
2017-May-21 03:26N 36°19' W 007°48'613.0
2017-May-21 03:00N 36°17' W 007°41'4413.0
2017-May-20 23:39N 36°04' W 006°50'913.3
2017-May-20 23:00N 36°02' W 006°40'713.2
2017-May-20 22:30N 35°60' W 006°32'712.9
2017-May-20 21:56N 35°58' W 006°23'612.5
2017-May-20 21:27N 35°58' W 006°16'612.7
2017-May-20 21:00N 35°58' W 006°09'912.8
2017-May-20 20:19N 35°58' W 005°58'1713.8
2017-May-20 19:05N 35°57' W 005°37'114.5
2017-May-20 19:00N 35°58' W 005°35'713.8
2017-May-20 18:30N 35°59' W 005°27'713.1
2017-May-20 18:00N 36°01' W 005°19'713.4
2017-May-20 17:30N 36°02' W 005°11'713.2
2017-May-20 16:59N 36°03' W 005°03'21012.5
2017-May-20 00:13N 37°17' W 000°58'313.2
2017-May-20 00:00N 37°19' W 000°55'613.2
2017-May-19 23:30N 37°23' W 000°49'713.1
2017-May-19 23:00N 37°28' W 000°42'713.0
2017-May-19 22:30N 37°32' W 000°36'613.0
2017-May-19 22:00N 37°37' W 000°31'813.1
2017-May-19 21:24N 37°44' W 000°26'15113.1
2017-May-19 09:50N 40°01' E 000°56'413.5
2017-May-19 09:30N 40°05' E 000°57'1113.3
2017-May-19 08:42N 40°15' E 001°03'313.8
2017-May-19 08:29N 40°18' E 001°04'713.4
2017-May-19 08:00N 40°24' E 001°04'713.9
2017-May-19 07:28N 40°32' E 001°04'35 0.8
2017-May-17 12:51N 41°06' E 001°13'0 0.0
2017-May-17 00:09N 41°06' E 001°13'0 0.0
2017-May-16 23:51N 41°06' E 001°13'0 0.0
2017-May-16 22:33N 41°06' E 001°13'0 0.1
2017-May-16 22:27N 41°06' E 001°13'0 0.0
2017-May-16 21:51N 41°06' E 001°13'0 0.0
2017-May-16 21:21N 41°06' E 001°13'0 0.0
2017-May-16 17:09N 41°06' E 001°13'0 0.0
2017-May-16 17:00N 41°06' E 001°13'2 3.4
2017-May-16 16:30N 41°04' E 001°12'1 1.7
2017-May-16 16:00N 41°03' E 001°13'1 2.0
2017-May-16 15:30N 41°04' E 001°14'2 2.7
2017-May-16 14:49N 41°05' E 001°17'0 0.0
2017-May-16 14:22N 41°05' E 001°17'0 0.0
2017-May-16 13:25N 41°05' E 001°17'0 0.0
2017-May-16 12:58N 41°05' E 001°17'0 0.0
2017-May-16 12:13N 41°05' E 001°17'0 0.0
2017-May-16 11:55N 41°05' E 001°17'0 0.0
2017-May-16 11:13N 41°05' E 001°17'0 0.0
2017-May-16 10:31N 41°05' E 001°17'0 0.0
2017-May-16 10:25N 41°05' E 001°17'0 0.0
2017-May-16 09:55N 41°05' E 001°17'0 0.0
2017-May-16 07:01N 41°05' E 001°17'0 0.0
2017-May-16 03:25N 41°05' E 001°17'0 0.0
2017-May-16 01:25N 41°05' E 001°17'0 0.0
2017-May-16 00:25N 41°05' E 001°17'0 0.0
2017-May-15 23:49N 41°05' E 001°17'0 0.0
2017-May-15 22:16N 41°05' E 001°17'0 0.0
2017-May-15 21:49N 41°05' E 001°17'0 0.0
2017-May-15 21:19N 41°05' E 001°17'0 0.0
2017-May-15 20:55N 41°05' E 001°17'0 0.0
2017-May-15 20:13N 41°05' E 001°17'  

Dump ship's entire track history